Mostaganem, Algeria
Current Conditions -  °F | °C
As of 11:00 AM on Saturday 22 Nov 2014 (Local Time) from DAOO Reporting Station
Broken Clouds Broken Clouds  
Wind Chill: 79°   Ceiling: 3300
Heat Index: 79°   Visibility: 6mi
Dew Point: 39°   Wind: 17mph
Humidity: 24%   Direction: 150°SSE
Pressure: 30"   Gusts: NA
Location:  35.94°N, 0.09°E
Report Text: DAOO 221000Z 15015KT 9999 BKN033 BKN100 26/04 Q1016
Loading
Personal Weather Stations






























Interactive Weather Map New forecast layout! Learn more

10-Day Weather Forecast

Advertisements
Track Severe Weather on mobile